Skip to main content

Macedo Cavaleiros, Bagueixe

ID 1210633 · 41.5667, -6.7833 map

Latest reading · 2026-05-09 19:00 (Europe/Lisbon)

Temperature
11.2 °C
Humidity
92 %
Pressure
1,006.7 hPa
Precipitation
0.0 mm
Radiation
Wind speed
17.3 km/h
Wind direction
W · West

24-hour history

Time (Europe/Lisbon) Temp Humidity Pressure Rain Wind Dir
2026-05-09 19:00 11.2 °C 92 % 1,006.7 0.0 mm 17.3 km/h W
2026-05-09 18:00 11.9 °C 90 % 1,006.0 0.0 mm 5.4 km/h E
2026-05-09 17:00 11.0 °C 96 % 1,005.9 0.0 mm 6.1 km/h SE
2026-05-09 16:00 10.3 °C 95 % 1,006.9 0.0 mm 10.4 km/h W
2026-05-09 15:00 12.5 °C 87 % 1,005.8 0.0 mm 10.1 km/h SE
2026-05-09 14:00 12.1 °C 94 % 1,006.2 0.0 mm 11.5 km/h SE
2026-05-09 13:00 11.0 °C 98 % 1,006.9 0.0 mm 5.8 km/h SE
2026-05-09 12:00 11.0 °C 94 % 1,007.0 0.0 mm 6.8 km/h SE
2026-05-09 11:00 12.7 °C 77 % 1,006.1 0.0 mm 10.1 km/h SE
2026-05-09 10:00 12.2 °C 80 % 1,006.5 0.0 mm 8.3 km/h E
2026-05-09 09:00 11.3 °C 80 % 1,006.8 0.0 mm 7.9 km/h E
2026-05-09 08:00 10.1 °C 87 % 1,007.1 0.0 mm 6.8 km/h E
2026-05-09 07:00 8.7 °C 93 % 1,007.5 0.0 mm 7.2 km/h E
2026-05-09 06:00 8.8 °C 94 % 1,007.5 0.0 mm 6.8 km/h E
2026-05-09 05:00 9.2 °C 93 % 1,007.8 0.0 mm 5.0 km/h NE
2026-05-09 04:00 9.4 °C 92 % 1,007.7 0.0 mm 6.8 km/h E
2026-05-09 03:00 9.3 °C 90 % 1,008.3 0.0 mm 7.6 km/h NE
2026-05-09 02:00 10.0 °C 82 % 1,008.6 0.0 mm 7.6 km/h E
2026-05-09 01:00 9.8 °C 83 % 1,008.8 0.0 mm 10.8 km/h E
2026-05-09 00:00 9.1 °C 90 % 1,009.4 0.0 mm 9.7 km/h E
2026-05-08 23:00 8.9 °C 92 % 1,009.9 0.0 mm 6.8 km/h NE
2026-05-08 22:00 9.0 °C 92 % 1,010.0 0.0 mm 9.4 km/h NE
2026-05-08 21:00 10.6 °C 89 % 1,009.3 0.0 mm 5.8 km/h NE
2026-05-08 20:00 13.6 °C 69 % 1,008.3 0.0 mm 4.7 km/h E